Sikinos — SVCL2 — position and weather

sailwx.info

Track history (hours):
 
Tides and Currents Weather Stations Pressure Air Temp Water Temp Dewpoint Dewpoint Depression Visibility Wind Speed Wind Dir Waves Ship Positions

Sikinos

Last reported at 2017-Dec-11 17:00 UTC. Time now 2017-Dec-14 17:17 UTC.
Position N 50°31' E 000°11'.

Length 184 m; draft 7.5 m.

Type: Tanker. MMSI: 241448000.

Date/timePositionNaut miles runAvg speedWind from/ knotsBaromVisibWave heightAir tempDewpointWater temp
2017-Dec-11 17:00N 50°31' E 000°11'5 9.7
2017-Dec-11 16:30N 50°33' E 000°17'5 9.2
2017-Dec-11 16:00N 50°36' E 000°24'4 8.9
2017-Dec-11 15:30N 50°37' E 000°30'4 9.0
2017-Dec-11 15:00N 50°39' E 000°37'5 9.7
2017-Dec-11 14:30N 50°42' E 000°43'510.5
2017-Dec-11 14:00N 50°45' E 000°50'611.2
2017-Dec-11 13:30N 50°48' E 000°57'612.0
2017-Dec-11 13:00N 50°52' E 001°04'612.4
2017-Dec-11 12:30N 50°56' E 001°12'612.9
2017-Dec-11 12:00N 51°00' E 001°19'713.4
2017-Dec-11 11:30N 51°04' E 001°27'713.1
2017-Dec-11 11:00N 51°09' E 001°36'612.6
2017-Dec-11 10:30N 51°13' E 001°43'611.0
2017-Dec-11 10:00N 51°18' E 001°48'510.6
2017-Dec-11 09:30N 51°22' E 001°51'5 9.5
2017-Dec-11 09:00N 51°27' E 001°55'5 9.5
2017-Dec-11 08:30N 51°30' E 001°59'5 9.8
2017-Dec-11 08:01N 51°34' E 002°05'5 9.8
2017-Dec-11 07:30N 51°38' E 002°10'5 9.5
2017-Dec-11 07:01N 51°41' E 002°15'5 9.7
2017-Dec-11 06:30N 51°45' E 002°21'4210.2
2017-Dec-11 02:25N 52°03' E 003°21'611.3
2017-Dec-11 01:54N 52°04' E 003°31'511.2
2017-Dec-11 01:29N 52°04' E 003°38'510.8
2017-Dec-11 01:00N 52°03' E 003°46'510.5
2017-Dec-11 00:30N 52°01' E 003°54'4 8.5
2017-Dec-11 00:00N 52°00' E 004°01'713.5
2017-Dec-10 23:30N 51°57' E 004°10'611.0
2017-Dec-10 23:00N 51°54' E 004°18'3 5.0
2017-Dec-10 22:29N 51°54' E 004°22'0 0.0
2017-Dec-10 21:59N 51°54' E 004°22'0 0.0
2017-Dec-10 21:29N 51°54' E 004°22'0 0.0
2017-Dec-10 20:56N 51°54' E 004°22'0 0.0
2017-Dec-10 20:29N 51°54' E 004°22'0 0.0
2017-Dec-10 19:59N 51°54' E 004°22'0 0.0
2017-Dec-10 19:29N 51°54' E 004°22'0 0.0
2017-Dec-10 18:59N 51°54' E 004°22'0 0.0
2017-Dec-10 18:29N 51°54' E 004°22'0 0.0
2017-Dec-10 17:59N 51°54' E 004°22'0 0.0
2017-Dec-10 17:29N 51°54' E 004°22'0 0.0
2017-Dec-10 16:59N 51°54' E 004°22'0 0.0
2017-Dec-10 16:29N 51°54' E 004°22'0 0.0
2017-Dec-10 15:59N 51°54' E 004°22'0 0.0
2017-Dec-10 15:29N 51°54' E 004°22'0 0.0
2017-Dec-10 14:59N 51°54' E 004°22'0 0.0
2017-Dec-10 14:29N 51°54' E 004°22'0 0.0
2017-Dec-10 13:59N 51°54' E 004°22'0 0.0
2017-Dec-10 13:26N 51°54' E 004°22'0 0.0
2017-Dec-10 12:59N 51°54' E 004°22'0 0.0
2017-Dec-10 12:29N 51°54' E 004°22'0 0.0
2017-Dec-10 11:59N 51°54' E 004°22'0 0.0
2017-Dec-10 11:29N 51°54' E 004°22'0 0.0
2017-Dec-10 10:56N 51°54' E 004°22'0 0.0
2017-Dec-10 10:29N 51°54' E 004°22'0 0.0
2017-Dec-10 09:59N 51°54' E 004°22'0 0.0
2017-Dec-10 09:29N 51°54' E 004°22'0 0.0
2017-Dec-10 08:59N 51°54' E 004°22'0 0.0
2017-Dec-10 08:29N 51°54' E 004°22'0 0.0
2017-Dec-10 07:59N 51°54' E 004°22'0 0.0
2017-Dec-10 07:29N 51°54' E 004°22'0 0.0
2017-Dec-10 06:59N 51°54' E 004°22'0 0.0
2017-Dec-10 06:29N 51°54' E 004°22'0 0.0
2017-Dec-10 05:59N 51°54' E 004°22'0 0.0
2017-Dec-10 05:29N 51°54' E 004°22'0 0.0
2017-Dec-10 04:59N 51°54' E 004°22'0 0.0
2017-Dec-10 04:29N 51°54' E 004°22'0 0.0
2017-Dec-10 03:59N 51°54' E 004°22'0 0.0
2017-Dec-10 03:29N 51°54' E 004°22'0 0.0
2017-Dec-10 02:59N 51°54' E 004°22'0 0.0
2017-Dec-10 02:29N 51°54' E 004°22'0 0.0
2017-Dec-10 01:59N 51°54' E 004°22'0 0.0
2017-Dec-10 01:29N 51°54' E 004°22'0 0.0
2017-Dec-10 00:59N 51°54' E 004°22'0 0.0
2017-Dec-10 00:29N 51°54' E 004°22'0 0.0
2017-Dec-09 23:59N 51°54' E 004°22'0 0.0
2017-Dec-09 23:26N 51°54' E 004°22'0 0.0
2017-Dec-09 22:59N 51°54' E 004°22'0 0.0
2017-Dec-09 22:29N 51°54' E 004°22'0 0.0
2017-Dec-09 21:59N 51°54' E 004°22'0 0.0
2017-Dec-09 21:29N 51°54' E 004°22'0 0.0
2017-Dec-09 20:59N 51°54' E 004°22'0 0.0
2017-Dec-09 20:29N 51°54' E 004°22'0 0.0
2017-Dec-09 19:59N 51°54' E 004°22'0 0.0
2017-Dec-09 19:26N 51°54' E 004°22'0 0.0
2017-Dec-09 18:53N 51°54' E 004°22'0 0.0
2017-Dec-09 18:29N 51°54' E 004°22'0 0.0
2017-Dec-09 17:59N 51°54' E 004°22'0 0.0
2017-Dec-09 17:29N 51°54' E 004°22'0 0.0
2017-Dec-09 16:56N 51°54' E 004°22'0 0.0
2017-Dec-09 16:29N 51°54' E 004°22'0 0.0
2017-Dec-09 15:59N 51°54' E 004°22'0 0.0
2017-Dec-09 15:29N 51°54' E 004°22'0 0.0
2017-Dec-09 14:59N 51°54' E 004°22'0 0.0
2017-Dec-09 14:29N 51°54' E 004°22'0 0.0
2017-Dec-09 13:56N 51°54' E 004°22'0 0.0
2017-Dec-09 13:26N 51°54' E 004°22'0 0.0
2017-Dec-09 12:59N 51°54' E 004°22'0 0.0
2017-Dec-09 12:29N 51°54' E 004°22'0 0.0
2017-Dec-09 11:59N 51°54' E 004°22'0 0.0
2017-Dec-09 11:29N 51°54' E 004°22'0 0.0
2017-Dec-09 10:59N 51°54' E 004°22'0 0.0
2017-Dec-09 10:29N 51°54' E 004°22'0 0.0
2017-Dec-09 09:59N 51°54' E 004°22'0 0.0
2017-Dec-09 09:29N 51°54' E 004°22'0 0.0
2017-Dec-09 08:59N 51°54' E 004°22'0 0.0
2017-Dec-09 08:29N 51°54' E 004°22'0 0.0
2017-Dec-09 07:59N 51°54' E 004°22'0 0.0
2017-Dec-09 07:29N 51°54' E 004°22'0 0.0
2017-Dec-09 06:59N 51°54' E 004°22'0 0.0
2017-Dec-09 06:26N 51°54' E 004°22'0 0.0
2017-Dec-09 05:59N 51°54' E 004°22'0 0.0
2017-Dec-09 05:29N 51°54' E 004°22'0 0.0
2017-Dec-09 04:59N 51°54' E 004°22'0 0.0
2017-Dec-09 04:29N 51°54' E 004°22'0 0.0
2017-Dec-09 03:59N 51°54' E 004°22'0 0.0
2017-Dec-09 03:29N 51°54' E 004°22'0 0.0
2017-Dec-09 02:56N 51°54' E 004°22'0 0.0
2017-Dec-09 02:29N 51°54' E 004°22'0 0.0
2017-Dec-09 01:59N 51°54' E 004°22'0 0.0
2017-Dec-09 01:26N 51°54' E 004°22'0 0.0
2017-Dec-09 00:59N 51°54' E 004°22'0 0.0
2017-Dec-09 00:29N 51°54' E 004°22'0 0.0
2017-Dec-08 23:59N 51°54' E 004°22'0 0.0
2017-Dec-08 23:29N 51°54' E 004°22'0 0.0
2017-Dec-08 22:59N 51°54' E 004°22'0 0.0
2017-Dec-08 22:29N 51°54' E 004°22'0 0.0
2017-Dec-08 21:59N 51°54' E 004°22'0 0.0
2017-Dec-08 21:29N 51°54' E 004°22'0 0.0
2017-Dec-08 20:59N 51°54' E 004°22'0 0.0
2017-Dec-08 20:29N 51°54' E 004°22'0 0.0
2017-Dec-08 19:59N 51°54' E 004°22'0 0.0
2017-Dec-08 19:29N 51°54' E 004°22'0 0.0
2017-Dec-08 18:59N 51°54' E 004°22'0 0.0
2017-Dec-08 18:26N 51°54' E 004°22'0 0.0
2017-Dec-08 17:59N 51°54' E 004°22'0 0.0
2017-Dec-08 17:26N 51°54' E 004°22'0 0.0
2017-Dec-08 16:59N 51°54' E 004°22'0 0.0
2017-Dec-08 16:26N 51°54' E 004°22'0 0.0
2017-Dec-08 15:59N 51°54' E 004°22'0 0.0
2017-Dec-08 15:26N 51°54' E 004°22'0 0.0
2017-Dec-08 14:56N 51°54' E 004°22'0 0.0
2017-Dec-08 14:29N 51°54' E 004°22'0 0.0
2017-Dec-08 13:59N 51°54' E 004°22'0 0.0
2017-Dec-08 13:29N 51°54' E 004°22'0 0.0
2017-Dec-08 12:59N 51°54' E 004°22'0 0.0
2017-Dec-08 12:26N 51°54' E 004°22'0 0.0
2017-Dec-08 11:59N 51°54' E 004°22'0 0.0
2017-Dec-08 11:23N 51°54' E 004°22'0 0.0
2017-Dec-08 10:59N 51°54' E 004°22'0 0.0
2017-Dec-08 10:29N 51°54' E 004°22'0 0.0
2017-Dec-08 09:59N 51°54' E 004°22'0 0.0
2017-Dec-08 09:30N 51°54' E 004°22'0 1.0
2017-Dec-08 09:00N 51°54' E 004°21'4 7.4
2017-Dec-08 08:30N 51°55' E 004°15'510.2
2017-Dec-08 08:00N 51°58' E 004°09'611.3
2017-Dec-08 07:30N 51°60' E 004°00'713.1
2017-Dec-08 07:00N 52°01' E 003°50'611.4
2017-Dec-08 06:30N 52°01' E 003°41'2 4.5
2017-Dec-08 06:00N 51°59' E 003°39'713.4
2017-Dec-08 05:30N 51°56' E 003°29'2 0.2
2017-Dec-07 18:50N 51°54' E 003°27'0 0.0
2017-Dec-07 18:27N 51°54' E 003°27'0 0.1
2017-Dec-07 17:59N 51°54' E 003°27'0 0.0
2017-Dec-07 01:08N 51°54' E 003°27'0 0.1
2017-Dec-07 01:00N 51°54' E 003°27'0 0.0
2017-Dec-07 00:30N 51°54' E 003°27'0 0.2
2017-Dec-06 23:56N 51°54' E 003°27'0 0.2
2017-Dec-06 23:23N 51°54' E 003°27'0 0.1
2017-Dec-06 22:59N 51°54' E 003°27'0 0.0
2017-Dec-06 22:29N 51°54' E 003°27'0 0.1
2017-Dec-06 21:11N 51°54' E 003°27'0 0.1
2017-Dec-06 20:59N 51°54' E 003°27'  
2017-Dec-04 09:56N 50°26' E 000°46'1314.1
2017-Dec-04 09:03N 50°23' E 000°27'114.5
2017-Dec-04 08:57N 50°23' E 000°25'614.7
2017-Dec-04 08:30N 50°21' E 000°15'714.7
2017-Dec-04 08:00N 50°19' E 000°04'714.2
2017-Dec-04 07:30N 50°17' W 000°06'713.9
2017-Dec-04 07:00N 50°15' W 000°17'2712.8
2017-Dec-04 04:54N 50°07' W 000°57'411.1
2017-Dec-04 04:30N 50°07' W 001°04'510.2
2017-Dec-04 04:00N 50°05' W 001°12'5 9.5
2017-Dec-04 03:31N 50°04' W 001°19'4 8.7
2017-Dec-04 03:01N 50°03' W 001°25'4 8.1
2017-Dec-04 02:30N 50°02' W 001°31'4 7.8
2017-Dec-04 02:01N 50°01' W 001°37'4 7.5
2017-Dec-04 01:31N 49°60' W 001°43'4 7.5
2017-Dec-04 01:00N 49°59' W 001°48'4 7.7
2017-Dec-04 00:30N 49°58' W 001°54'4 8.3
2017-Dec-04 00:01N 49°57' W 002°00'5 9.5
2017-Dec-03 23:30N 49°55' W 002°07'1311.3
2017-Dec-03 22:23N 49°52' W 002°26'612.3
2017-Dec-03 21:55N 49°50' W 002°35'512.4
2017-Dec-03 21:30N 49°49' W 002°43'612.8
2017-Dec-03 21:00N 49°47' W 002°52'913.0
2017-Dec-03 20:21N 49°44' W 003°04'1713.3
2017-Dec-03 19:03N 49°35' W 003°27'213.3
2017-Dec-03 18:52N 49°34' W 003°30'4213.6
2017-Dec-03 15:49N 49°12' W 004°25'514.2
2017-Dec-03 15:28N 49°10' W 004°32'2114.1
2017-Dec-03 14:00N 48°59' W 004°59'713.6
2017-Dec-03 13:30N 48°56' W 005°08'713.6
2017-Dec-03 13:00N 48°52' W 005°17'714.2
2017-Dec-03 12:30N 48°49' W 005°26'714.0
2017-Dec-03 11:59N 48°45' W 005°36'713.9
2017-Dec-03 11:27N 48°39' W 005°41'713.6
2017-Dec-03 10:55N 48°33' W 005°47'912.0
2017-Dec-03 10:12N 48°25' W 005°54'11 8.9
2017-Dec-03 09:00N 48°16' W 006°02'5111.6
2017-Dec-03 04:38N 47°31' W 006°38'213.4
2017-Dec-03 04:30N 47°30' W 006°39'714.2
2017-Dec-03 03:59N 47°23' W 006°45'714.1
2017-Dec-03 03:30N 47°18' W 006°50'  
Track history (hours):
 
Tides and Currents Weather Stations Pressure Air Temp Water Temp Dewpoint Dewpoint Depression Visibility Wind Speed Wind Dir Waves Ship Positions

Sikinos

Last reported at 2017-Dec-11 17:00 UTC. Time now 2017-Dec-14 17:17 UTC.
Position N 50°31' E 000°11'.

Length 184 m; draft 7.5 m.

Type: Tanker. MMSI: 241448000.

Date/timePositionNaut miles runAvg speedWind from/ knotsBaromVisibWave heightAir tempDewpointWater temp
2017-Dec-11 17:00N 50°31' E 000°11'5 9.7
2017-Dec-11 16:30N 50°33' E 000°17'5 9.2
2017-Dec-11 16:00N 50°36' E 000°24'4 8.9
2017-Dec-11 15:30N 50°37' E 000°30'4 9.0
2017-Dec-11 15:00N 50°39' E 000°37'5 9.7
2017-Dec-11 14:30N 50°42' E 000°43'510.5
2017-Dec-11 14:00N 50°45' E 000°50'611.2
2017-Dec-11 13:30N 50°48' E 000°57'612.0
2017-Dec-11 13:00N 50°52' E 001°04'612.4
2017-Dec-11 12:30N 50°56' E 001°12'612.9
2017-Dec-11 12:00N 51°00' E 001°19'713.4
2017-Dec-11 11:30N 51°04' E 001°27'713.1
2017-Dec-11 11:00N 51°09' E 001°36'612.6
2017-Dec-11 10:30N 51°13' E 001°43'611.0
2017-Dec-11 10:00N 51°18' E 001°48'510.6
2017-Dec-11 09:30N 51°22' E 001°51'5 9.5
2017-Dec-11 09:00N 51°27' E 001°55'5 9.5
2017-Dec-11 08:30N 51°30' E 001°59'5 9.8
2017-Dec-11 08:01N 51°34' E 002°05'5 9.8
2017-Dec-11 07:30N 51°38' E 002°10'5 9.5
2017-Dec-11 07:01N 51°41' E 002°15'5 9.7
2017-Dec-11 06:30N 51°45' E 002°21'4210.2
2017-Dec-11 02:25N 52°03' E 003°21'611.3
2017-Dec-11 01:54N 52°04' E 003°31'511.2
2017-Dec-11 01:29N 52°04' E 003°38'510.8
2017-Dec-11 01:00N 52°03' E 003°46'510.5
2017-Dec-11 00:30N 52°01' E 003°54'4 8.5
2017-Dec-11 00:00N 52°00' E 004°01'713.5
2017-Dec-10 23:30N 51°57' E 004°10'611.0
2017-Dec-10 23:00N 51°54' E 004°18'3 5.0
2017-Dec-10 22:29N 51°54' E 004°22'0 0.0
2017-Dec-10 21:59N 51°54' E 004°22'0 0.0
2017-Dec-10 21:29N 51°54' E 004°22'0 0.0
2017-Dec-10 20:56N 51°54' E 004°22'0 0.0
2017-Dec-10 20:29N 51°54' E 004°22'0 0.0
2017-Dec-10 19:59N 51°54' E 004°22'0 0.0
2017-Dec-10 19:29N 51°54' E 004°22'0 0.0
2017-Dec-10 18:59N 51°54' E 004°22'0 0.0
2017-Dec-10 18:29N 51°54' E 004°22'0 0.0
2017-Dec-10 17:59N 51°54' E 004°22'0 0.0
2017-Dec-10 17:29N 51°54' E 004°22'0 0.0
2017-Dec-10 16:59N 51°54' E 004°22'0 0.0
2017-Dec-10 16:29N 51°54' E 004°22'0 0.0
2017-Dec-10 15:59N 51°54' E 004°22'0 0.0
2017-Dec-10 15:29N 51°54' E 004°22'0 0.0
2017-Dec-10 14:59N 51°54' E 004°22'0 0.0
2017-Dec-10 14:29N 51°54' E 004°22'0 0.0
2017-Dec-10 13:59N 51°54' E 004°22'0 0.0
2017-Dec-10 13:26N 51°54' E 004°22'0 0.0
2017-Dec-10 12:59N 51°54' E 004°22'0 0.0
2017-Dec-10 12:29N 51°54' E 004°22'0 0.0
2017-Dec-10 11:59N 51°54' E 004°22'0 0.0
2017-Dec-10 11:29N 51°54' E 004°22'0 0.0
2017-Dec-10 10:56N 51°54' E 004°22'0 0.0
2017-Dec-10 10:29N 51°54' E 004°22'0 0.0
2017-Dec-10 09:59N 51°54' E 004°22'0 0.0
2017-Dec-10 09:29N 51°54' E 004°22'0 0.0
2017-Dec-10 08:59N 51°54' E 004°22'0 0.0
2017-Dec-10 08:29N 51°54' E 004°22'0 0.0
2017-Dec-10 07:59N 51°54' E 004°22'0 0.0
2017-Dec-10 07:29N 51°54' E 004°22'0 0.0
2017-Dec-10 06:59N 51°54' E 004°22'0 0.0
2017-Dec-10 06:29N 51°54' E 004°22'0 0.0
2017-Dec-10 05:59N 51°54' E 004°22'0 0.0
2017-Dec-10 05:29N 51°54' E 004°22'0 0.0
2017-Dec-10 04:59N 51°54' E 004°22'0 0.0
2017-Dec-10 04:29N 51°54' E 004°22'0 0.0
2017-Dec-10 03:59N 51°54' E 004°22'0 0.0
2017-Dec-10 03:29N 51°54' E 004°22'0 0.0
2017-Dec-10 02:59N 51°54' E 004°22'0 0.0
2017-Dec-10 02:29N 51°54' E 004°22'0 0.0
2017-Dec-10 01:59N 51°54' E 004°22'0 0.0
2017-Dec-10 01:29N 51°54' E 004°22'0 0.0
2017-Dec-10 00:59N 51°54' E 004°22'0 0.0
2017-Dec-10 00:29N 51°54' E 004°22'0 0.0
2017-Dec-09 23:59N 51°54' E 004°22'0 0.0
2017-Dec-09 23:26N 51°54' E 004°22'0 0.0
2017-Dec-09 22:59N 51°54' E 004°22'0 0.0
2017-Dec-09 22:29N 51°54' E 004°22'0 0.0
2017-Dec-09 21:59N 51°54' E 004°22'0 0.0
2017-Dec-09 21:29N 51°54' E 004°22'0 0.0
2017-Dec-09 20:59N 51°54' E 004°22'0 0.0
2017-Dec-09 20:29N 51°54' E 004°22'0 0.0
2017-Dec-09 19:59N 51°54' E 004°22'0 0.0
2017-Dec-09 19:26N 51°54' E 004°22'0 0.0
2017-Dec-09 18:53N 51°54' E 004°22'0 0.0
2017-Dec-09 18:29N 51°54' E 004°22'0 0.0
2017-Dec-09 17:59N 51°54' E 004°22'0 0.0
2017-Dec-09 17:29N 51°54' E 004°22'0 0.0
2017-Dec-09 16:56N 51°54' E 004°22'0 0.0
2017-Dec-09 16:29N 51°54' E 004°22'0 0.0
2017-Dec-09 15:59N 51°54' E 004°22'0 0.0
2017-Dec-09 15:29N 51°54' E 004°22'0 0.0
2017-Dec-09 14:59N 51°54' E 004°22'0 0.0
2017-Dec-09 14:29N 51°54' E 004°22'0 0.0
2017-Dec-09 13:56N 51°54' E 004°22'0 0.0
2017-Dec-09 13:26N 51°54' E 004°22'0 0.0
2017-Dec-09 12:59N 51°54' E 004°22'0 0.0
2017-Dec-09 12:29N 51°54' E 004°22'0 0.0
2017-Dec-09 11:59N 51°54' E 004°22'0 0.0
2017-Dec-09 11:29N 51°54' E 004°22'0 0.0
2017-Dec-09 10:59N 51°54' E 004°22'0 0.0
2017-Dec-09 10:29N 51°54' E 004°22'0 0.0
2017-Dec-09 09:59N 51°54' E 004°22'0 0.0
2017-Dec-09 09:29N 51°54' E 004°22'0 0.0
2017-Dec-09 08:59N 51°54' E 004°22'0 0.0
2017-Dec-09 08:29N 51°54' E 004°22'0 0.0
2017-Dec-09 07:59N 51°54' E 004°22'0 0.0
2017-Dec-09 07:29N 51°54' E 004°22'0 0.0
2017-Dec-09 06:59N 51°54' E 004°22'0 0.0
2017-Dec-09 06:26N 51°54' E 004°22'0 0.0
2017-Dec-09 05:59N 51°54' E 004°22'0 0.0
2017-Dec-09 05:29N 51°54' E 004°22'0 0.0
2017-Dec-09 04:59N 51°54' E 004°22'0 0.0
2017-Dec-09 04:29N 51°54' E 004°22'0 0.0
2017-Dec-09 03:59N 51°54' E 004°22'0 0.0
2017-Dec-09 03:29N 51°54' E 004°22'0 0.0
2017-Dec-09 02:56N 51°54' E 004°22'0 0.0
2017-Dec-09 02:29N 51°54' E 004°22'0 0.0
2017-Dec-09 01:59N 51°54' E 004°22'0 0.0
2017-Dec-09 01:26N 51°54' E 004°22'0 0.0
2017-Dec-09 00:59N 51°54' E 004°22'0 0.0
2017-Dec-09 00:29N 51°54' E 004°22'0 0.0
2017-Dec-08 23:59N 51°54' E 004°22'0 0.0
2017-Dec-08 23:29N 51°54' E 004°22'0 0.0
2017-Dec-08 22:59N 51°54' E 004°22'0 0.0
2017-Dec-08 22:29N 51°54' E 004°22'0 0.0
2017-Dec-08 21:59N 51°54' E 004°22'0 0.0
2017-Dec-08 21:29N 51°54' E 004°22'0 0.0
2017-Dec-08 20:59N 51°54' E 004°22'0 0.0
2017-Dec-08 20:29N 51°54' E 004°22'0 0.0
2017-Dec-08 19:59N 51°54' E 004°22'0 0.0
2017-Dec-08 19:29N 51°54' E 004°22'0 0.0
2017-Dec-08 18:59N 51°54' E 004°22'0 0.0
2017-Dec-08 18:26N 51°54' E 004°22'0 0.0
2017-Dec-08 17:59N 51°54' E 004°22'0 0.0
2017-Dec-08 17:26N 51°54' E 004°22'0 0.0
2017-Dec-08 16:59N 51°54' E 004°22'0 0.0
2017-Dec-08 16:26N 51°54' E 004°22'0 0.0
2017-Dec-08 15:59N 51°54' E 004°22'0 0.0
2017-Dec-08 15:26N 51°54' E 004°22'0 0.0
2017-Dec-08 14:56N 51°54' E 004°22'0 0.0
2017-Dec-08 14:29N 51°54' E 004°22'0 0.0
2017-Dec-08 13:59N 51°54' E 004°22'0 0.0
2017-Dec-08 13:29N 51°54' E 004°22'0 0.0
2017-Dec-08 12:59N 51°54' E 004°22'0 0.0
2017-Dec-08 12:26N 51°54' E 004°22'0 0.0
2017-Dec-08 11:59N 51°54' E 004°22'0 0.0
2017-Dec-08 11:23N 51°54' E 004°22'0 0.0
2017-Dec-08 10:59N 51°54' E 004°22'0 0.0
2017-Dec-08 10:29N 51°54' E 004°22'0 0.0
2017-Dec-08 09:59N 51°54' E 004°22'0 0.0
2017-Dec-08 09:30N 51°54' E 004°22'0 1.0
2017-Dec-08 09:00N 51°54' E 004°21'4 7.4
2017-Dec-08 08:30N 51°55' E 004°15'510.2
2017-Dec-08 08:00N 51°58' E 004°09'611.3
2017-Dec-08 07:30N 51°60' E 004°00'713.1
2017-Dec-08 07:00N 52°01' E 003°50'611.4
2017-Dec-08 06:30N 52°01' E 003°41'2 4.5
2017-Dec-08 06:00N 51°59' E 003°39'713.4
2017-Dec-08 05:30N 51°56' E 003°29'2 0.2
2017-Dec-07 18:50N 51°54' E 003°27'0 0.0
2017-Dec-07 18:27N 51°54' E 003°27'0 0.1
2017-Dec-07 17:59N 51°54' E 003°27'0 0.0
2017-Dec-07 01:08N 51°54' E 003°27'0 0.1
2017-Dec-07 01:00N 51°54' E 003°27'0 0.0
2017-Dec-07 00:30N 51°54' E 003°27'0 0.2
2017-Dec-06 23:56N 51°54' E 003°27'0 0.2
2017-Dec-06 23:23N 51°54' E 003°27'0 0.1
2017-Dec-06 22:59N 51°54' E 003°27'0 0.0
2017-Dec-06 22:29N 51°54' E 003°27'0 0.1
2017-Dec-06 21:11N 51°54' E 003°27'0 0.1
2017-Dec-06 20:59N 51°54' E 003°27'  
2017-Dec-04 09:56N 50°26' E 000°46'1314.1
2017-Dec-04 09:03N 50°23' E 000°27'114.5
2017-Dec-04 08:57N 50°23' E 000°25'614.7
2017-Dec-04 08:30N 50°21' E 000°15'714.7
2017-Dec-04 08:00N 50°19' E 000°04'714.2
2017-Dec-04 07:30N 50°17' W 000°06'713.9
2017-Dec-04 07:00N 50°15' W 000°17'2712.8
2017-Dec-04 04:54N 50°07' W 000°57'411.1
2017-Dec-04 04:30N 50°07' W 001°04'510.2
2017-Dec-04 04:00N 50°05' W 001°12'5 9.5
2017-Dec-04 03:31N 50°04' W 001°19'4 8.7
2017-Dec-04 03:01N 50°03' W 001°25'4 8.1
2017-Dec-04 02:30N 50°02' W 001°31'4 7.8
2017-Dec-04 02:01N 50°01' W 001°37'4 7.5
2017-Dec-04 01:31N 49°60' W 001°43'4 7.5
2017-Dec-04 01:00N 49°59' W 001°48'4 7.7
2017-Dec-04 00:30N 49°58' W 001°54'4 8.3
2017-Dec-04 00:01N 49°57' W 002°00'5 9.5
2017-Dec-03 23:30N 49°55' W 002°07'1311.3
2017-Dec-03 22:23N 49°52' W 002°26'612.3
2017-Dec-03 21:55N 49°50' W 002°35'512.4
2017-Dec-03 21:30N 49°49' W 002°43'612.8
2017-Dec-03 21:00N 49°47' W 002°52'913.0
2017-Dec-03 20:21N 49°44' W 003°04'1713.3
2017-Dec-03 19:03N 49°35' W 003°27'213.3
2017-Dec-03 18:52N 49°34' W 003°30'4213.6
2017-Dec-03 15:49N 49°12' W 004°25'514.2
2017-Dec-03 15:28N 49°10' W 004°32'2114.1
2017-Dec-03 14:00N 48°59' W 004°59'713.6
2017-Dec-03 13:30N 48°56' W 005°08'713.6
2017-Dec-03 13:00N 48°52' W 005°17'714.2
2017-Dec-03 12:30N 48°49' W 005°26'714.0
2017-Dec-03 11:59N 48°45' W 005°36'713.9
2017-Dec-03 11:27N 48°39' W 005°41'713.6
2017-Dec-03 10:55N 48°33' W 005°47'912.0
2017-Dec-03 10:12N 48°25' W 005°54'11 8.9
2017-Dec-03 09:00N 48°16' W 006°02'5111.6
2017-Dec-03 04:38N 47°31' W 006°38'213.4
2017-Dec-03 04:30N 47°30' W 006°39'714.2
2017-Dec-03 03:59N 47°23' W 006°45'714.1
2017-Dec-03 03:30N 47°18' W 006°50'  

Dump ship's entire track history